sensor_id;sensor_type;location;lat;lon;timestamp;P1;durP1;ratioP1;P2;durP2;ratioP2
46439;SDS011;32138;50.966;6.968;2023-02-15T00:00:49;44.03;;;33.13;;
46439;SDS011;32138;50.966;6.968;2023-02-15T00:01:50;54.13;;;37.38;;
46439;SDS011;32138;50.966;6.968;2023-02-15T00:02:51;49.60;;;35.10;;
46439;SDS011;32138;50.966;6.968;2023-02-15T00:03:52;73.65;;;54.90;;
46439;SDS011;32138;50.966;6.968;2023-02-15T00:04:53;50.47;;;36.33;;
46439;SDS011;32138;50.966;6.968;2023-02-15T00:05:56;42.88;;;30.40;;
46439;SDS011;32138;50.966;6.968;2023-02-15T00:06:57;53.45;;;38.10;;
46439;SDS011;32138;50.966;6.968;2023-02-15T00:07:58;47.70;;;35.35;;
46439;SDS011;32138;50.966;6.968;2023-02-15T00:08:59;43.28;;;33.67;;
46439;SDS011;32138;50.966;6.968;2023-02-15T00:10:00;41.42;;;30.38;;
46439;SDS011;32138;50.966;6.968;2023-02-15T00:11:04;46.92;;;34.80;;
46439;SDS011;32138;50.966;6.968;2023-02-15T00:12:11;53.25;;;37.92;;
46439;SDS011;32138;50.966;6.968;2023-02-15T00:13:12;43.03;;;31.52;;
46439;SDS011;32138;50.966;6.968;2023-02-15T00:14:14;42.30;;;31.02;;
46439;SDS011;32138;50.966;6.968;2023-02-15T00:15:16;53.33;;;37.15;;
46439;SDS011;32138;50.966;6.968;2023-02-15T00:16:17;53.08;;;37.50;;
46439;SDS011;32138;50.966;6.968;2023-02-15T00:17:18;57.28;;;40.17;;
46439;SDS011;32138;50.966;6.968;2023-02-15T00:18:18;49.45;;;36.25;;
46439;SDS011;32138;50.966;6.968;2023-02-15T00:19:20;66.60;;;46.58;;
46439;SDS011;32138;50.966;6.968;2023-02-15T00:20:21;43.10;;;31.15;;
46439;SDS011;32138;50.966;6.968;2023-02-15T00:21:22;48.08;;;34.33;;
46439;SDS011;32138;50.966;6.968;2023-02-15T00:22:23;53.25;;;35.08;;
46439;SDS011;32138;50.966;6.968;2023-02-15T00:23:24;55.95;;;40.15;;
46439;SDS011;32138;50.966;6.968;2023-02-15T00:24:26;62.70;;;40.90;;
46439;SDS011;32138;50.966;6.968;2023-02-15T00:25:27;50.47;;;37.58;;
46439;SDS011;32138;50.966;6.968;2023-02-15T00:26:28;59.92;;;42.00;;
46439;SDS011;32138;50.966;6.968;2023-02-15T00:27:29;62.15;;;43.35;;
46439;SDS011;32138;50.966;6.968;2023-02-15T00:28:30;45.45;;;32.95;;
46439;SDS011;32138;50.966;6.968;2023-02-15T00:29:31;52.28;;;37.80;;
46439;SDS011;32138;50.966;6.968;2023-02-15T00:30:32;73.57;;;52.00;;
46439;SDS011;32138;50.966;6.968;2023-02-15T00:31:32;64.88;;;48.80;;
46439;SDS011;32138;50.966;6.968;2023-02-15T00:32:34;42.53;;;32.42;;
46439;SDS011;32138;50.966;6.968;2023-02-15T00:33:35;47.08;;;33.70;;
46439;SDS011;32138;50.966;6.968;2023-02-15T00:34:37;44.65;;;33.00;;
46439;SDS011;32138;50.966;6.968;2023-02-15T00:35:37;47.53;;;34.75;;
46439;SDS011;32138;50.966;6.968;2023-02-15T00:36:38;54.05;;;35.88;;
46439;SDS011;32138;50.966;6.968;2023-02-15T00:37:39;52.17;;;34.28;;
46439;SDS011;32138;50.966;6.968;2023-02-15T00:38:40;55.03;;;35.45;;
46439;SDS011;32138;50.966;6.968;2023-02-15T00:39:40;60.13;;;39.17;;
46439;SDS011;32138;50.966;6.968;2023-02-15T00:40:41;54.58;;;35.30;;
46439;SDS011;32138;50.966;6.968;2023-02-15T00:41:42;54.45;;;36.38;;
46439;SDS011;32138;50.966;6.968;2023-02-15T00:42:43;62.17;;;40.40;;
46439;SDS011;32138;50.966;6.968;2023-02-15T00:43:44;49.53;;;34.28;;
46439;SDS011;32138;50.966;6.968;2023-02-15T00:44:44;55.40;;;35.25;;
46439;SDS011;32138;50.966;6.968;2023-02-15T00:45:45;56.35;;;36.53;;
46439;SDS011;32138;50.966;6.968;2023-02-15T00:46:46;50.03;;;34.58;;
46439;SDS011;32138;50.966;6.968;2023-02-15T00:47:47;46.70;;;34.72;;
46439;SDS011;32138;50.966;6.968;2023-02-15T00:48:48;55.53;;;39.70;;
46439;SDS011;32138;50.966;6.968;2023-02-15T00:49:49;66.88;;;46.30;;
46439;SDS011;32138;50.966;6.968;2023-02-15T00:50:52;63.42;;;43.42;;
46439;SDS011;32138;50.966;6.968;2023-02-15T00:51:58;66.72;;;45.25;;
46439;SDS011;32138;50.966;6.968;2023-02-15T00:52:59;83.25;;;58.38;;
46439;SDS011;32138;50.966;6.968;2023-02-15T00:53:59;75.72;;;49.42;;
46439;SDS011;32138;50.966;6.968;2023-02-15T00:55:00;53.75;;;37.97;;
46439;SDS011;32138;50.966;6.968;2023-02-15T00:56:01;51.70;;;35.45;;
46439;SDS011;32138;50.966;6.968;2023-02-15T00:57:01;43.13;;;29.80;;
46439;SDS011;32138;50.966;6.968;2023-02-15T00:58:02;46.42;;;32.42;;
46439;SDS011;32138;50.966;6.968;2023-02-15T00:59:03;47.17;;;31.55;;
46439;SDS011;32138;50.966;6.968;2023-02-15T01:00:04;66.13;;;40.58;;
46439;SDS011;32138;50.966;6.968;2023-02-15T01:01:10;83.50;;;45.50;;
46439;SDS011;32138;50.966;6.968;2023-02-15T01:02:13;49.65;;;32.20;;
46439;SDS011;32138;50.966;6.968;2023-02-15T01:03:14;42.22;;;29.60;;
46439;SDS011;32138;50.966;6.968;2023-02-15T01:04:17;42.33;;;29.85;;
46439;SDS011;32138;50.966;6.968;2023-02-15T01:05:18;53.47;;;35.20;;
46439;SDS011;32138;50.966;6.968;2023-02-15T01:06:19;59.78;;;37.45;;
46439;SDS011;32138;50.966;6.968;2023-02-15T01:07:20;74.65;;;45.20;;
46439;SDS011;32138;50.966;6.968;2023-02-15T01:08:20;57.83;;;37.88;;
46439;SDS011;32138;50.966;6.968;2023-02-15T01:09:21;49.17;;;33.67;;
46439;SDS011;32138;50.966;6.968;2023-02-15T01:10:22;42.90;;;29.70;;
46439;SDS011;32138;50.966;6.968;2023-02-15T01:11:23;49.72;;;33.38;;
46439;SDS011;32138;50.966;6.968;2023-02-15T01:12:24;44.78;;;32.40;;
46439;SDS011;32138;50.966;6.968;2023-02-15T01:13:25;65.80;;;47.15;;
46439;SDS011;32138;50.966;6.968;2023-02-15T01:14:25;54.42;;;37.83;;
46439;SDS011;32138;50.966;6.968;2023-02-15T01:15:26;48.63;;;33.78;;
46439;SDS011;32138;50.966;6.968;2023-02-15T01:16:28;43.85;;;31.95;;
46439;SDS011;32138;50.966;6.968;2023-02-15T01:17:29;44.00;;;31.20;;
46439;SDS011;32138;50.966;6.968;2023-02-15T01:18:31;41.97;;;30.52;;
46439;SDS011;32138;50.966;6.968;2023-02-15T01:19:34;42.95;;;33.70;;
46439;SDS011;32138;50.966;6.968;2023-02-15T01:20:35;43.00;;;32.50;;
46439;SDS011;32138;50.966;6.968;2023-02-15T01:21:38;40.58;;;30.75;;
46439;SDS011;32138;50.966;6.968;2023-02-15T01:22:40;42.78;;;30.83;;
46439;SDS011;32138;50.966;6.968;2023-02-15T01:23:41;39.83;;;30.52;;
46439;SDS011;32138;50.966;6.968;2023-02-15T01:24:42;39.42;;;30.00;;
46439;SDS011;32138;50.966;6.968;2023-02-15T01:25:43;36.30;;;28.65;;
46439;SDS011;32138;50.966;6.968;2023-02-15T01:26:44;42.10;;;30.27;;
46439;SDS011;32138;50.966;6.968;2023-02-15T01:27:45;41.17;;;29.83;;
46439;SDS011;32138;50.966;6.968;2023-02-15T01:28:46;37.75;;;27.85;;
46439;SDS011;32138;50.966;6.968;2023-02-15T01:29:47;37.58;;;28.02;;
46439;SDS011;32138;50.966;6.968;2023-02-15T01:30:48;38.20;;;28.67;;
46439;SDS011;32138;50.966;6.968;2023-02-15T01:31:51;40.35;;;28.20;;
46439;SDS011;32138;50.966;6.968;2023-02-15T01:32:52;39.55;;;29.00;;
46439;SDS011;32138;50.966;6.968;2023-02-15T01:33:52;42.40;;;30.38;;
46439;SDS011;32138;50.966;6.968;2023-02-15T01:34:53;40.42;;;30.15;;
46439;SDS011;32138;50.966;6.968;2023-02-15T01:35:57;35.33;;;27.17;;
46439;SDS011;32138;50.966;6.968;2023-02-15T01:36:58;42.00;;;30.58;;
46439;SDS011;32138;50.966;6.968;2023-02-15T01:37:59;38.85;;;28.80;;
46439;SDS011;32138;50.966;6.968;2023-02-15T01:39:00;38.85;;;28.65;;
46439;SDS011;32138;50.966;6.968;2023-02-15T01:40:02;39.45;;;28.35;;
46439;SDS011;32138;50.966;6.968;2023-02-15T01:41:08;42.15;;;30.95;;
46439;SDS011;32138;50.966;6.968;2023-02-15T01:42:24;41.22;;;29.83;;
46439;SDS011;32138;50.966;6.968;2023-02-15T01:43:38;37.70;;;28.20;;
46439;SDS011;32138;50.966;6.968;2023-02-15T01:46:00;36.70;;;26.83;;
46439;SDS011;32138;50.966;6.968;2023-02-15T01:47:01;39.10;;;28.52;;
46439;SDS011;32138;50.966;6.968;2023-02-15T01:48:03;39.08;;;27.23;;
46439;SDS011;32138;50.966;6.968;2023-02-15T01:49:20;44.10;;;30.38;;
46439;SDS011;32138;50.966;6.968;2023-02-15T01:50:43;42.50;;;28.73;;
46439;SDS011;32138;50.966;6.968;2023-02-15T01:51:48;38.67;;;28.75;;
46439;SDS011;32138;50.966;6.968;2023-02-15T01:52:58;47.75;;;34.78;;
46439;SDS011;32138;50.966;6.968;2023-02-15T01:54:09;38.92;;;27.60;;
46439;SDS011;32138;50.966;6.968;2023-02-15T01:55:25;39.33;;;27.65;;
46439;SDS011;32138;50.966;6.968;2023-02-15T01:56:37;42.50;;;28.27;;
46439;SDS011;32138;50.966;6.968;2023-02-15T01:57:40;36.47;;;28.08;;
46439;SDS011;32138;50.966;6.968;2023-02-15T01:58:42;40.22;;;27.38;;
46439;SDS011;32138;50.966;6.968;2023-02-15T01:59:45;39.70;;;28.08;;
46439;SDS011;32138;50.966;6.968;2023-02-15T02:00:53;41.58;;;29.75;;
46439;SDS011;32138;50.966;6.968;2023-02-15T02:01:57;41.28;;;29.25;;
46439;SDS011;32138;50.966;6.968;2023-02-15T02:03:00;38.17;;;28.38;;
46439;SDS011;32138;50.966;6.968;2023-02-15T02:05:16;39.78;;;27.92;;
46439;SDS011;32138;50.966;6.968;2023-02-15T02:06:17;38.17;;;28.27;;
46439;SDS011;32138;50.966;6.968;2023-02-15T02:07:20;39.20;;;28.00;;
46439;SDS011;32138;50.966;6.968;2023-02-15T02:08:24;38.00;;;27.95;;
46439;SDS011;32138;50.966;6.968;2023-02-15T02:09:25;38.47;;;28.25;;
46439;SDS011;32138;50.966;6.968;2023-02-15T02:10:26;38.03;;;26.08;;
46439;SDS011;32138;50.966;6.968;2023-02-15T02:11:27;39.70;;;28.10;;
46439;SDS011;32138;50.966;6.968;2023-02-15T02:12:28;41.50;;;29.33;;
46439;SDS011;32138;50.966;6.968;2023-02-15T02:13:29;40.17;;;28.45;;
46439;SDS011;32138;50.966;6.968;2023-02-15T02:14:30;42.42;;;29.33;;
46439;SDS011;32138;50.966;6.968;2023-02-15T02:15:39;39.78;;;28.85;;
46439;SDS011;32138;50.966;6.968;2023-02-15T02:34:53;37.78;;;27.50;;
46439;SDS011;32138;50.966;6.968;2023-02-15T02:37:16;38.88;;;27.13;;
46439;SDS011;32138;50.966;6.968;2023-02-15T02:38:42;39.45;;;26.60;;
46439;SDS011;32138;50.966;6.968;2023-02-15T02:39:56;37.05;;;26.10;;
46439;SDS011;32138;50.966;6.968;2023-02-15T02:41:40;34.47;;;24.88;;
46439;SDS011;32138;50.966;6.968;2023-02-15T02:43:00;35.95;;;25.08;;
46439;SDS011;32138;50.966;6.968;2023-02-15T02:46:03;35.25;;;24.85;;
46439;SDS011;32138;50.966;6.968;2023-02-15T02:47:16;39.40;;;26.15;;
46439;SDS011;32138;50.966;6.968;2023-02-15T02:48:27;37.50;;;25.52;;
46439;SDS011;32138;50.966;6.968;2023-02-15T02:49:33;37.10;;;26.58;;
46439;SDS011;32138;50.966;6.968;2023-02-15T02:50:40;37.47;;;26.88;;
46439;SDS011;32138;50.966;6.968;2023-02-15T02:51:41;36.58;;;26.67;;
46439;SDS011;32138;50.966;6.968;2023-02-15T02:52:43;37.63;;;26.13;;
46439;SDS011;32138;50.966;6.968;2023-02-15T02:53:48;37.72;;;26.83;;
46439;SDS011;32138;50.966;6.968;2023-02-15T02:54:54;38.45;;;26.45;;
46439;SDS011;32138;50.966;6.968;2023-02-15T02:57:18;35.42;;;24.95;;
46439;SDS011;32138;50.966;6.968;2023-02-15T02:58:24;37.58;;;27.48;;
46439;SDS011;32138;50.966;6.968;2023-02-15T02:59:37;38.05;;;26.23;;
46439;SDS011;32138;50.966;6.968;2023-02-15T03:00:44;37.78;;;26.63;;
46439;SDS011;32138;50.966;6.968;2023-02-15T03:02:13;38.00;;;26.88;;
46439;SDS011;32138;50.966;6.968;2023-02-15T03:03:27;34.67;;;24.55;;
46439;SDS011;32138;50.966;6.968;2023-02-15T03:04:40;37.50;;;26.50;;
46439;SDS011;32138;50.966;6.968;2023-02-15T03:05:46;37.25;;;26.15;;
46439;SDS011;32138;50.966;6.968;2023-02-15T03:06:54;39.88;;;28.02;;
46439;SDS011;32138;50.966;6.968;2023-02-15T03:08:08;37.28;;;26.35;;
46439;SDS011;32138;50.966;6.968;2023-02-15T03:09:11;35.67;;;26.42;;
46439;SDS011;32138;50.966;6.968;2023-02-15T03:10:17;37.75;;;26.73;;
46439;SDS011;32138;50.966;6.968;2023-02-15T03:11:21;36.85;;;26.00;;
46439;SDS011;32138;50.966;6.968;2023-02-15T03:13:32;36.00;;;25.65;;
46439;SDS011;32138;50.966;6.968;2023-02-15T03:14:34;39.38;;;26.35;;
46439;SDS011;32138;50.966;6.968;2023-02-15T03:15:38;38.17;;;27.13;;
46439;SDS011;32138;50.966;6.968;2023-02-15T03:17:02;36.65;;;25.65;;
46439;SDS011;32138;50.966;6.968;2023-02-15T03:18:06;35.75;;;25.52;;
46439;SDS011;32138;50.966;6.968;2023-02-15T03:19:11;38.90;;;26.70;;
46439;SDS011;32138;50.966;6.968;2023-02-15T03:21:32;36.30;;;24.92;;
46439;SDS011;32138;50.966;6.968;2023-02-15T03:22:51;36.42;;;26.05;;
46439;SDS011;32138;50.966;6.968;2023-02-15T03:24:10;37.25;;;25.80;;
46439;SDS011;32138;50.966;6.968;2023-02-15T03:25:30;33.63;;;24.30;;
46439;SDS011;32138;50.966;6.968;2023-02-15T03:26:45;35.20;;;23.95;;
46439;SDS011;32138;50.966;6.968;2023-02-15T03:27:54;34.67;;;25.05;;
46439;SDS011;32138;50.966;6.968;2023-02-15T03:29:00;35.92;;;25.23;;
46439;SDS011;32138;50.966;6.968;2023-02-15T03:30:04;37.10;;;25.45;;
46439;SDS011;32138;50.966;6.968;2023-02-15T03:31:07;35.67;;;25.13;;
46439;SDS011;32138;50.966;6.968;2023-02-15T03:32:10;37.83;;;25.15;;
46439;SDS011;32138;50.966;6.968;2023-02-15T03:33:13;32.50;;;24.52;;
46439;SDS011;32138;50.966;6.968;2023-02-15T03:34:15;37.92;;;24.95;;
46439;SDS011;32138;50.966;6.968;2023-02-15T03:35:19;35.13;;;24.52;;
46439;SDS011;32138;50.966;6.968;2023-02-15T03:36:27;37.03;;;24.67;;
46439;SDS011;32138;50.966;6.968;2023-02-15T03:37:59;35.88;;;25.70;;
46439;SDS011;32138;50.966;6.968;2023-02-15T03:39:08;33.58;;;23.50;;
46439;SDS011;32138;50.966;6.968;2023-02-15T03:40:29;34.58;;;24.73;;
46439;SDS011;32138;50.966;6.968;2023-02-15T03:43:00;35.05;;;25.52;;
46439;SDS011;32138;50.966;6.968;2023-02-15T03:44:11;33.58;;;23.75;;
46439;SDS011;32138;50.966;6.968;2023-02-15T03:45:21;38.78;;;26.42;;
46439;SDS011;32138;50.966;6.968;2023-02-15T03:47:49;37.03;;;25.27;;
46439;SDS011;32138;50.966;6.968;2023-02-15T03:49:03;38.83;;;25.50;;
46439;SDS011;32138;50.966;6.968;2023-02-15T03:50:15;37.33;;;24.90;;
46439;SDS011;32138;50.966;6.968;2023-02-15T03:51:45;35.63;;;24.02;;
46439;SDS011;32138;50.966;6.968;2023-02-15T03:52:48;36.20;;;25.10;;
46439;SDS011;32138;50.966;6.968;2023-02-15T03:53:49;38.25;;;24.40;;
46439;SDS011;32138;50.966;6.968;2023-02-15T03:54:51;41.95;;;27.20;;
46439;SDS011;32138;50.966;6.968;2023-02-15T03:55:53;37.58;;;26.33;;
46439;SDS011;32138;50.966;6.968;2023-02-15T03:56:55;35.95;;;24.73;;
46439;SDS011;32138;50.966;6.968;2023-02-15T03:58:17;34.70;;;24.98;;
46439;SDS011;32138;50.966;6.968;2023-02-15T03:59:36;31.55;;;24.42;;
46439;SDS011;32138;50.966;6.968;2023-02-15T04:01:00;37.38;;;24.63;;
46439;SDS011;32138;50.966;6.968;2023-02-15T04:04:01;38.78;;;25.92;;
46439;SDS011;32138;50.966;6.968;2023-02-15T04:05:08;37.15;;;24.33;;
46439;SDS011;32138;50.966;6.968;2023-02-15T04:06:09;40.08;;;26.35;;
46439;SDS011;32138;50.966;6.968;2023-02-15T04:07:09;35.97;;;25.75;;
46439;SDS011;32138;50.966;6.968;2023-02-15T04:08:10;36.22;;;25.50;;
46439;SDS011;32138;50.966;6.968;2023-02-15T04:09:12;34.75;;;25.50;;
46439;SDS011;32138;50.966;6.968;2023-02-15T04:10:32;32.58;;;24.38;;
46439;SDS011;32138;50.966;6.968;2023-02-15T04:11:51;32.88;;;24.27;;
46439;SDS011;32138;50.966;6.968;2023-02-15T04:12:52;35.35;;;25.45;;
46439;SDS011;32138;50.966;6.968;2023-02-15T04:13:53;37.08;;;24.85;;
46439;SDS011;32138;50.966;6.968;2023-02-15T04:14:56;34.95;;;24.60;;
46439;SDS011;32138;50.966;6.968;2023-02-15T04:16:15;35.92;;;26.38;;
46439;SDS011;32138;50.966;6.968;2023-02-15T04:17:16;34.90;;;25.02;;
46439;SDS011;32138;50.966;6.968;2023-02-15T04:18:17;33.17;;;23.65;;
46439;SDS011;32138;50.966;6.968;2023-02-15T04:19:17;32.20;;;23.48;;
46439;SDS011;32138;50.966;6.968;2023-02-15T04:20:37;35.58;;;24.40;;
46439;SDS011;32138;50.966;6.968;2023-02-15T04:21:56;34.15;;;23.05;;
46439;SDS011;32138;50.966;6.968;2023-02-15T04:23:15;36.40;;;24.25;;
46439;SDS011;32138;50.966;6.968;2023-02-15T04:24:34;37.20;;;23.48;;
46439;SDS011;32138;50.966;6.968;2023-02-15T04:25:53;38.03;;;24.55;;
46439;SDS011;32138;50.966;6.968;2023-02-15T04:26:54;36.60;;;24.70;;
46439;SDS011;32138;50.966;6.968;2023-02-15T04:27:57;38.85;;;24.90;;
46439;SDS011;32138;50.966;6.968;2023-02-15T04:28:58;36.08;;;25.83;;
46439;SDS011;32138;50.966;6.968;2023-02-15T04:29:59;35.03;;;25.33;;
46439;SDS011;32138;50.966;6.968;2023-02-15T04:31:00;34.85;;;24.52;;
46439;SDS011;32138;50.966;6.968;2023-02-15T04:32:01;36.47;;;24.73;;
46439;SDS011;32138;50.966;6.968;2023-02-15T04:33:02;36.08;;;25.75;;
46439;SDS011;32138;50.966;6.968;2023-02-15T04:34:03;35.75;;;24.90;;
46439;SDS011;32138;50.966;6.968;2023-02-15T04:35:04;34.28;;;23.55;;
46439;SDS011;32138;50.966;6.968;2023-02-15T04:36:06;35.22;;;24.38;;
46439;SDS011;32138;50.966;6.968;2023-02-15T04:37:06;36.97;;;25.27;;
46439;SDS011;32138;50.966;6.968;2023-02-15T04:38:07;38.10;;;25.98;;
46439;SDS011;32138;50.966;6.968;2023-02-15T04:39:08;37.28;;;24.80;;
46439;SDS011;32138;50.966;6.968;2023-02-15T04:40:11;36.17;;;25.70;;
46439;SDS011;32138;50.966;6.968;2023-02-15T04:41:14;37.60;;;24.85;;
46439;SDS011;32138;50.966;6.968;2023-02-15T04:42:15;38.53;;;26.63;;
46439;SDS011;32138;50.966;6.968;2023-02-15T04:43:16;37.65;;;25.65;;
46439;SDS011;32138;50.966;6.968;2023-02-15T04:44:16;35.00;;;25.00;;
46439;SDS011;32138;50.966;6.968;2023-02-15T04:45:17;38.85;;;28.15;;
46439;SDS011;32138;50.966;6.968;2023-02-15T04:46:18;36.58;;;26.00;;
46439;SDS011;32138;50.966;6.968;2023-02-15T04:47:19;35.58;;;24.90;;
46439;SDS011;32138;50.966;6.968;2023-02-15T04:48:20;33.40;;;24.35;;
46439;SDS011;32138;50.966;6.968;2023-02-15T04:49:21;36.97;;;24.70;;
46439;SDS011;32138;50.966;6.968;2023-02-15T04:50:21;36.80;;;26.50;;
46439;SDS011;32138;50.966;6.968;2023-02-15T04:51:22;35.78;;;24.58;;
46439;SDS011;32138;50.966;6.968;2023-02-15T04:52:23;34.03;;;24.10;;
46439;SDS011;32138;50.966;6.968;2023-02-15T04:53:24;37.33;;;25.38;;
46439;SDS011;32138;50.966;6.968;2023-02-15T04:54:25;37.95;;;24.73;;
46439;SDS011;32138;50.966;6.968;2023-02-15T04:55:26;35.05;;;23.80;;
46439;SDS011;32138;50.966;6.968;2023-02-15T04:56:26;38.50;;;25.52;;
46439;SDS011;32138;50.966;6.968;2023-02-15T04:57:29;35.65;;;25.20;;
46439;SDS011;32138;50.966;6.968;2023-02-15T04:58:30;34.88;;;24.30;;
46439;SDS011;32138;50.966;6.968;2023-02-15T04:59:31;36.20;;;24.50;;
46439;SDS011;32138;50.966;6.968;2023-02-15T05:00:32;35.30;;;25.10;;
46439;SDS011;32138;50.966;6.968;2023-02-15T05:01:32;34.88;;;22.95;;
46439;SDS011;32138;50.966;6.968;2023-02-15T05:02:33;33.40;;;23.48;;
46439;SDS011;32138;50.966;6.968;2023-02-15T05:03:34;36.22;;;23.73;;
46439;SDS011;32138;50.966;6.968;2023-02-15T05:04:35;33.67;;;23.77;;
46439;SDS011;32138;50.966;6.968;2023-02-15T05:05:36;34.65;;;25.25;;
46439;SDS011;32138;50.966;6.968;2023-02-15T05:06:37;32.10;;;22.80;;
46439;SDS011;32138;50.966;6.968;2023-02-15T05:07:38;36.70;;;23.80;;
46439;SDS011;32138;50.966;6.968;2023-02-15T05:08:38;35.85;;;22.77;;
46439;SDS011;32138;50.966;6.968;2023-02-15T05:09:39;30.13;;;22.88;;
46439;SDS011;32138;50.966;6.968;2023-02-15T05:10:40;35.92;;;22.65;;
46439;SDS011;32138;50.966;6.968;2023-02-15T05:11:41;33.45;;;24.17;;
46439;SDS011;32138;50.966;6.968;2023-02-15T05:12:42;36.65;;;23.85;;
46439;SDS011;32138;50.966;6.968;2023-02-15T05:13:42;32.72;;;22.80;;
46439;SDS011;32138;50.966;6.968;2023-02-15T05:14:43;35.17;;;24.90;;
46439;SDS011;32138;50.966;6.968;2023-02-15T05:15:49;36.45;;;25.35;;
46439;SDS011;32138;50.966;6.968;2023-02-15T05:16:51;38.00;;;23.45;;
46439;SDS011;32138;50.966;6.968;2023-02-15T05:17:53;31.58;;;22.90;;
46439;SDS011;32138;50.966;6.968;2023-02-15T05:18:54;34.00;;;23.80;;
46439;SDS011;32138;50.966;6.968;2023-02-15T05:19:55;32.42;;;22.63;;
46439;SDS011;32138;50.966;6.968;2023-02-15T05:20:55;34.78;;;24.25;;
46439;SDS011;32138;50.966;6.968;2023-02-15T05:21:56;32.53;;;23.50;;
46439;SDS011;32138;50.966;6.968;2023-02-15T05:22:57;34.42;;;23.90;;
46439;SDS011;32138;50.966;6.968;2023-02-15T05:23:58;34.95;;;24.67;;
46439;SDS011;32138;50.966;6.968;2023-02-15T05:24:58;35.08;;;23.98;;
46439;SDS011;32138;50.966;6.968;2023-02-15T05:26:19;33.63;;;23.30;;
46439;SDS011;32138;50.966;6.968;2023-02-15T05:27:41;34.25;;;22.55;;
46439;SDS011;32138;50.966;6.968;2023-02-15T05:29:00;33.05;;;22.15;;
46439;SDS011;32138;50.966;6.968;2023-02-15T05:30:01;31.30;;;22.02;;
46439;SDS011;32138;50.966;6.968;2023-02-15T05:32:03;33.05;;;23.30;;
46439;SDS011;32138;50.966;6.968;2023-02-15T05:33:04;34.53;;;24.70;;
46439;SDS011;32138;50.966;6.968;2023-02-15T05:34:05;32.72;;;23.35;;
46439;SDS011;32138;50.966;6.968;2023-02-15T05:35:06;31.23;;;22.35;;
46439;SDS011;32138;50.966;6.968;2023-02-15T05:36:07;33.63;;;22.80;;
46439;SDS011;32138;50.966;6.968;2023-02-15T05:37:09;31.88;;;23.38;;
46439;SDS011;32138;50.966;6.968;2023-02-15T05:38:09;32.33;;;22.00;;
46439;SDS011;32138;50.966;6.968;2023-02-15T05:39:10;31.15;;;21.90;;
46439;SDS011;32138;50.966;6.968;2023-02-15T05:40:11;33.33;;;23.25;;
46439;SDS011;32138;50.966;6.968;2023-02-15T05:41:12;33.03;;;23.05;;
46439;SDS011;32138;50.966;6.968;2023-02-15T05:42:12;32.47;;;23.38;;
46439;SDS011;32138;50.966;6.968;2023-02-15T05:43:13;31.60;;;22.33;;
46439;SDS011;32138;50.966;6.968;2023-02-15T05:44:14;32.88;;;23.20;;
46439;SDS011;32138;50.966;6.968;2023-02-15T05:45:15;30.23;;;22.13;;
46439;SDS011;32138;50.966;6.968;2023-02-15T05:46:15;30.88;;;22.88;;
46439;SDS011;32138;50.966;6.968;2023-02-15T05:47:16;32.13;;;23.30;;
46439;SDS011;32138;50.966;6.968;2023-02-15T05:48:18;33.03;;;22.48;;
46439;SDS011;32138;50.966;6.968;2023-02-15T05:49:20;33.83;;;22.30;;
46439;SDS011;32138;50.966;6.968;2023-02-15T05:50:21;30.52;;;21.80;;
46439;SDS011;32138;50.966;6.968;2023-02-15T05:51:22;31.42;;;22.27;;
46439;SDS011;32138;50.966;6.968;2023-02-15T05:52:23;34.38;;;23.15;;
46439;SDS011;32138;50.966;6.968;2023-02-15T05:53:24;30.15;;;21.63;;
46439;SDS011;32138;50.966;6.968;2023-02-15T05:54:25;32.35;;;22.60;;
46439;SDS011;32138;50.966;6.968;2023-02-15T05:55:26;35.28;;;23.30;;
46439;SDS011;32138;50.966;6.968;2023-02-15T05:56:27;30.48;;;21.48;;
46439;SDS011;32138;50.966;6.968;2023-02-15T05:57:27;35.78;;;23.33;;
46439;SDS011;32138;50.966;6.968;2023-02-15T05:58:29;31.55;;;22.90;;
46439;SDS011;32138;50.966;6.968;2023-02-15T05:59:33;31.92;;;21.73;;
46439;SDS011;32138;50.966;6.968;2023-02-15T06:00:34;32.33;;;22.05;;
46439;SDS011;32138;50.966;6.968;2023-02-15T06:01:35;29.70;;;22.00;;
46439;SDS011;32138;50.966;6.968;2023-02-15T06:02:36;33.22;;;22.33;;
46439;SDS011;32138;50.966;6.968;2023-02-15T06:03:37;32.53;;;22.50;;
46439;SDS011;32138;50.966;6.968;2023-02-15T06:04:38;31.65;;;21.63;;
46439;SDS011;32138;50.966;6.968;2023-02-15T06:05:39;32.33;;;21.02;;
46439;SDS011;32138;50.966;6.968;2023-02-15T06:06:40;30.63;;;21.42;;
46439;SDS011;32138;50.966;6.968;2023-02-15T06:07:42;34.13;;;22.15;;
46439;SDS011;32138;50.966;6.968;2023-02-15T06:08:44;34.42;;;22.08;;
46439;SDS011;32138;50.966;6.968;2023-02-15T06:09:45;35.22;;;22.33;;
46439;SDS011;32138;50.966;6.968;2023-02-15T06:10:46;30.95;;;22.02;;
46439;SDS011;32138;50.966;6.968;2023-02-15T06:11:47;31.27;;;22.13;;
46439;SDS011;32138;50.966;6.968;2023-02-15T06:12:47;33.22;;;22.55;;
46439;SDS011;32138;50.966;6.968;2023-02-15T06:13:48;32.90;;;23.20;;
46439;SDS011;32138;50.966;6.968;2023-02-15T06:14:49;31.77;;;22.02;;
46439;SDS011;32138;50.966;6.968;2023-02-15T06:15:49;30.00;;;22.55;;
46439;SDS011;32138;50.966;6.968;2023-02-15T06:16:50;31.20;;;22.25;;
46439;SDS011;32138;50.966;6.968;2023-02-15T06:17:51;32.85;;;22.42;;
46439;SDS011;32138;50.966;6.968;2023-02-15T06:18:52;37.85;;;22.67;;
46439;SDS011;32138;50.966;6.968;2023-02-15T06:19:53;35.50;;;23.25;;
46439;SDS011;32138;50.966;6.968;2023-02-15T06:20:53;33.67;;;22.92;;
46439;SDS011;32138;50.966;6.968;2023-02-15T06:21:54;32.95;;;23.27;;
46439;SDS011;32138;50.966;6.968;2023-02-15T06:22:55;31.77;;;22.50;;
46439;SDS011;32138;50.966;6.968;2023-02-15T06:23:56;31.42;;;22.02;;
46439;SDS011;32138;50.966;6.968;2023-02-15T06:24:56;35.35;;;23.33;;
46439;SDS011;32138;50.966;6.968;2023-02-15T06:25:57;33.40;;;23.02;;
46439;SDS011;32138;50.966;6.968;2023-02-15T06:26:58;31.10;;;22.25;;
46439;SDS011;32138;50.966;6.968;2023-02-15T06:27:58;34.47;;;23.67;;
46439;SDS011;32138;50.966;6.968;2023-02-15T06:28:59;37.40;;;22.30;;
46439;SDS011;32138;50.966;6.968;2023-02-15T06:30:00;32.53;;;22.65;;
46439;SDS011;32138;50.966;6.968;2023-02-15T06:31:01;35.38;;;23.23;;
46439;SDS011;32138;50.966;6.968;2023-02-15T06:32:01;31.77;;;22.27;;
46439;SDS011;32138;50.966;6.968;2023-02-15T06:33:02;33.35;;;22.65;;
46439;SDS011;32138;50.966;6.968;2023-02-15T06:34:03;30.65;;;21.85;;
46439;SDS011;32138;50.966;6.968;2023-02-15T06:35:04;33.53;;;23.00;;
46439;SDS011;32138;50.966;6.968;2023-02-15T06:36:05;32.33;;;21.95;;
46439;SDS011;32138;50.966;6.968;2023-02-15T06:37:06;28.27;;;20.92;;
46439;SDS011;32138;50.966;6.968;2023-02-15T06:38:08;29.27;;;21.92;;
46439;SDS011;32138;50.966;6.968;2023-02-15T06:39:09;30.40;;;21.60;;
46439;SDS011;32138;50.966;6.968;2023-02-15T06:40:09;32.70;;;22.27;;
46439;SDS011;32138;50.966;6.968;2023-02-15T06:41:10;31.35;;;21.35;;
46439;SDS011;32138;50.966;6.968;2023-02-15T06:42:11;32.15;;;22.65;;
46439;SDS011;32138;50.966;6.968;2023-02-15T06:43:12;32.08;;;20.38;;
46439;SDS011;32138;50.966;6.968;2023-02-15T06:44:13;34.90;;;22.15;;
46439;SDS011;32138;50.966;6.968;2023-02-15T06:45:14;31.75;;;21.50;;
46439;SDS011;32138;50.966;6.968;2023-02-15T06:46:14;31.52;;;21.80;;
46439;SDS011;32138;50.966;6.968;2023-02-15T06:47:15;31.27;;;22.63;;